sensor_id;sensor_type;location;lat;lon;timestamp;temperature;humidity
17813;DHT22;9030;50.792;8.320;2022-10-16T00:02:24;11.20;99.90
17813;DHT22;9030;50.792;8.320;2022-10-16T00:04:51;11.30;99.90
17813;DHT22;9030;50.792;8.320;2022-10-16T00:07:17;11.50;99.90
17813;DHT22;9030;50.792;8.320;2022-10-16T00:09:45;11.60;99.90
17813;DHT22;9030;50.792;8.320;2022-10-16T00:12:13;11.50;99.90
17813;DHT22;9030;50.792;8.320;2022-10-16T00:14:40;11.50;99.90
17813;DHT22;9030;50.792;8.320;2022-10-16T00:17:09;11.40;99.90
17813;DHT22;9030;50.792;8.320;2022-10-16T00:19:35;11.20;99.90
17813;DHT22;9030;50.792;8.320;2022-10-16T00:22:02;11.20;99.90
17813;DHT22;9030;50.792;8.320;2022-10-16T00:24:29;11.30;99.90
17813;DHT22;9030;50.792;8.320;2022-10-16T00:26:56;11.30;99.90
17813;DHT22;9030;50.792;8.320;2022-10-16T00:29:24;11.30;99.90
17813;DHT22;9030;50.792;8.320;2022-10-16T00:31:50;11.40;99.90
17813;DHT22;9030;50.792;8.320;2022-10-16T00:34:17;11.20;99.90
17813;DHT22;9030;50.792;8.320;2022-10-16T00:36:44;11.30;99.90
17813;DHT22;9030;50.792;8.320;2022-10-16T00:39:10;11.30;99.90
17813;DHT22;9030;50.792;8.320;2022-10-16T00:41:37;11.30;99.90
17813;DHT22;9030;50.792;8.320;2022-10-16T00:47:13;11.40;99.90
17813;DHT22;9030;50.792;8.320;2022-10-16T00:49:41;11.40;99.90
17813;DHT22;9030;50.792;8.320;2022-10-16T00:52:08;11.50;99.90
17813;DHT22;9030;50.792;8.320;2022-10-16T00:54:36;11.50;99.90
17813;DHT22;9030;50.792;8.320;2022-10-16T00:57:05;11.50;99.90
17813;DHT22;9030;50.792;8.320;2022-10-16T00:59:33;11.70;99.90
17813;DHT22;9030;50.792;8.320;2022-10-16T01:02:02;11.70;99.90
17813;DHT22;9030;50.792;8.320;2022-10-16T01:04:33;11.60;99.90
17813;DHT22;9030;50.792;8.320;2022-10-16T01:07:05;11.80;99.90
17813;DHT22;9030;50.792;8.320;2022-10-16T01:09:38;11.70;99.90
17813;DHT22;9030;50.792;8.320;2022-10-16T01:12:12;11.60;99.90
17813;DHT22;9030;50.792;8.320;2022-10-16T01:14:43;11.40;99.90
17813;DHT22;9030;50.792;8.320;2022-10-16T01:17:14;11.30;99.90
17813;DHT22;9030;50.792;8.320;2022-10-16T01:20:00;11.50;99.90
17813;DHT22;9030;50.792;8.320;2022-10-16T01:22:37;11.90;99.90
17813;DHT22;9030;50.792;8.320;2022-10-16T01:25:09;11.80;99.90
17813;DHT22;9030;50.792;8.320;2022-10-16T01:27:40;11.60;99.90
17813;DHT22;9030;50.792;8.320;2022-10-16T01:30:10;11.60;99.90
17813;DHT22;9030;50.792;8.320;2022-10-16T01:32:42;11.70;99.90
17813;DHT22;9030;50.792;8.320;2022-10-16T01:35:15;11.70;99.90
17813;DHT22;9030;50.792;8.320;2022-10-16T01:37:48;11.60;99.90
17813;DHT22;9030;50.792;8.320;2022-10-16T01:40:17;11.60;99.90
17813;DHT22;9030;50.792;8.320;2022-10-16T01:42:50;11.60;99.90
17813;DHT22;9030;50.792;8.320;2022-10-16T01:45:19;11.70;99.90
17813;DHT22;9030;50.792;8.320;2022-10-16T01:47:48;11.80;99.90
17813;DHT22;9030;50.792;8.320;2022-10-16T01:50:18;11.70;99.90
17813;DHT22;9030;50.792;8.320;2022-10-16T01:52:48;11.80;99.90
17813;DHT22;9030;50.792;8.320;2022-10-16T01:55:19;11.80;99.90
17813;DHT22;9030;50.792;8.320;2022-10-16T01:57:49;11.80;99.90
17813;DHT22;9030;50.792;8.320;2022-10-16T02:00:19;12.00;99.90
17813;DHT22;9030;50.792;8.320;2022-10-16T02:02:49;11.80;99.90
17813;DHT22;9030;50.792;8.320;2022-10-16T02:05:21;11.90;99.90
17813;DHT22;9030;50.792;8.320;2022-10-16T02:07:49;11.90;99.90
17813;DHT22;9030;50.792;8.320;2022-10-16T02:10:16;11.80;99.90
17813;DHT22;9030;50.792;8.320;2022-10-16T02:12:47;11.70;99.90
17813;DHT22;9030;50.792;8.320;2022-10-16T02:15:16;11.20;99.90
17813;DHT22;9030;50.792;8.320;2022-10-16T02:17:43;11.00;99.90
17813;DHT22;9030;50.792;8.320;2022-10-16T02:20:10;11.10;99.90
17813;DHT22;9030;50.792;8.320;2022-10-16T02:22:40;10.90;99.90
17813;DHT22;9030;50.792;8.320;2022-10-16T02:25:10;10.80;99.90
17813;DHT22;9030;50.792;8.320;2022-10-16T02:27:41;10.70;99.90
17813;DHT22;9030;50.792;8.320;2022-10-16T02:30:14;10.90;99.90
17813;DHT22;9030;50.792;8.320;2022-10-16T02:32:47;11.20;99.90
17813;DHT22;9030;50.792;8.320;2022-10-16T02:35:17;11.10;99.90
17813;DHT22;9030;50.792;8.320;2022-10-16T02:37:45;11.10;99.90
17813;DHT22;9030;50.792;8.320;2022-10-16T02:40:13;11.10;99.90
17813;DHT22;9030;50.792;8.320;2022-10-16T02:42:41;11.00;99.90
17813;DHT22;9030;50.792;8.320;2022-10-16T02:45:09;11.00;99.90
17813;DHT22;9030;50.792;8.320;2022-10-16T02:47:37;10.90;99.90
17813;DHT22;9030;50.792;8.320;2022-10-16T02:50:06;11.10;99.90
17813;DHT22;9030;50.792;8.320;2022-10-16T02:52:32;11.30;99.90
17813;DHT22;9030;50.792;8.320;2022-10-16T02:54:59;11.30;99.90
17813;DHT22;9030;50.792;8.320;2022-10-16T02:57:26;11.30;99.90
17813;DHT22;9030;50.792;8.320;2022-10-16T02:59:53;11.20;99.90
17813;DHT22;9030;50.792;8.320;2022-10-16T03:02:20;10.90;99.90
17813;DHT22;9030;50.792;8.320;2022-10-16T03:04:47;10.80;99.90
17813;DHT22;9030;50.792;8.320;2022-10-16T03:07:15;10.70;99.90
17813;DHT22;9030;50.792;8.320;2022-10-16T03:09:42;10.70;99.90
17813;DHT22;9030;50.792;8.320;2022-10-16T03:12:08;10.70;99.90
17813;DHT22;9030;50.792;8.320;2022-10-16T03:14:37;10.70;99.90
17813;DHT22;9030;50.792;8.320;2022-10-16T03:17:05;10.60;99.90
17813;DHT22;9030;50.792;8.320;2022-10-16T03:19:31;10.70;99.90
17813;DHT22;9030;50.792;8.320;2022-10-16T03:21:58;10.70;99.90
17813;DHT22;9030;50.792;8.320;2022-10-16T03:24:26;10.90;99.90
17813;DHT22;9030;50.792;8.320;2022-10-16T03:26:53;11.00;99.90
17813;DHT22;9030;50.792;8.320;2022-10-16T03:29:20;11.00;99.90
17813;DHT22;9030;50.792;8.320;2022-10-16T03:31:46;10.90;99.90
17813;DHT22;9030;50.792;8.320;2022-10-16T03:34:14;10.70;99.90
17813;DHT22;9030;50.792;8.320;2022-10-16T03:36:41;10.70;99.90
17813;DHT22;9030;50.792;8.320;2022-10-16T03:39:08;10.90;99.90
17813;DHT22;9030;50.792;8.320;2022-10-16T03:41:36;11.10;99.90
17813;DHT22;9030;50.792;8.320;2022-10-16T03:44:02;11.10;99.90
17813;DHT22;9030;50.792;8.320;2022-10-16T03:46:29;11.20;99.90
17813;DHT22;9030;50.792;8.320;2022-10-16T03:48:56;11.20;99.90
17813;DHT22;9030;50.792;8.320;2022-10-16T03:51:23;11.20;99.90
17813;DHT22;9030;50.792;8.320;2022-10-16T03:53:50;11.10;99.90
17813;DHT22;9030;50.792;8.320;2022-10-16T03:56:17;11.10;99.90
17813;DHT22;9030;50.792;8.320;2022-10-16T03:58:45;10.90;99.90
17813;DHT22;9030;50.792;8.320;2022-10-16T04:01:12;10.90;99.90
17813;DHT22;9030;50.792;8.320;2022-10-16T04:03:38;11.10;99.90
17813;DHT22;9030;50.792;8.320;2022-10-16T04:06:05;11.10;99.90
17813;DHT22;9030;50.792;8.320;2022-10-16T04:08:32;11.10;99.90
17813;DHT22;9030;50.792;8.320;2022-10-16T04:11:00;11.10;99.90
17813;DHT22;9030;50.792;8.320;2022-10-16T04:13:26;11.20;99.90
